sensor_id;sensor_type;location;lat;lon;timestamp;pressure;altitude;pressure_sealevel;temperature
8533;BMP280;4304;53.876;10.662;2023-08-08T00:00:46;100564.66;;;13.00
8533;BMP280;4304;53.876;10.662;2023-08-08T00:03:11;100559.66;;;12.97
8533;BMP280;4304;53.876;10.662;2023-08-08T00:05:36;100569.28;;;12.96
8533;BMP280;4304;53.876;10.662;2023-08-08T00:08:02;100565.00;;;12.95
8533;BMP280;4304;53.876;10.662;2023-08-08T00:10:27;100566.44;;;12.88
8533;BMP280;4304;53.876;10.662;2023-08-08T00:12:53;100560.66;;;12.85
8533;BMP280;4304;53.876;10.662;2023-08-08T00:15:18;100555.69;;;12.82
8533;BMP280;4304;53.876;10.662;2023-08-08T00:17:43;100559.44;;;12.78
8533;BMP280;4304;53.876;10.662;2023-08-08T00:20:10;100560.41;;;12.77
8533;BMP280;4304;53.876;10.662;2023-08-08T00:22:35;100562.66;;;12.71
8533;BMP280;4304;53.876;10.662;2023-08-08T00:25:00;100562.66;;;12.71
8533;BMP280;4304;53.876;10.662;2023-08-08T00:27:26;100569.31;;;12.64
8533;BMP280;4304;53.876;10.662;2023-08-08T00:29:51;100553.31;;;12.57
8533;BMP280;4304;53.876;10.662;2023-08-08T00:32:18;100546.69;;;12.53
8533;BMP280;4304;53.876;10.662;2023-08-08T00:34:43;100554.50;;;12.53
8533;BMP280;4304;53.876;10.662;2023-08-08T00:37:09;100546.31;;;12.58
8533;BMP280;4304;53.876;10.662;2023-08-08T00:39:34;100549.28;;;12.53
8533;BMP280;4304;53.876;10.662;2023-08-08T00:42:00;100545.25;;;12.49
8533;BMP280;4304;53.876;10.662;2023-08-08T00:44:25;100562.69;;;12.49
8533;BMP280;4304;53.876;10.662;2023-08-08T00:46:50;100565.41;;;12.58
8533;BMP280;4304;53.876;10.662;2023-08-08T00:49:16;100568.47;;;12.52
8533;BMP280;4304;53.876;10.662;2023-08-08T00:51:42;100559.50;;;12.56
8533;BMP280;4304;53.876;10.662;2023-08-08T00:54:07;100566.69;;;12.64
8533;BMP280;4304;53.876;10.662;2023-08-08T00:56:33;100567.91;;;12.60
8533;BMP280;4304;53.876;10.662;2023-08-08T00:58:59;100554.38;;;12.55
8533;BMP280;4304;53.876;10.662;2023-08-08T01:01:25;100568.13;;;12.57
8533;BMP280;4304;53.876;10.662;2023-08-08T01:03:50;100561.47;;;12.53
8533;BMP280;4304;53.876;10.662;2023-08-08T01:06:29;100565.28;;;12.49
8533;BMP280;4304;53.876;10.662;2023-08-08T01:09:01;100554.16;;;12.47
8533;BMP280;4304;53.876;10.662;2023-08-08T01:11:28;100555.22;;;12.44
8533;BMP280;4304;53.876;10.662;2023-08-08T01:13:56;100548.69;;;12.39
8533;BMP280;4304;53.876;10.662;2023-08-08T01:16:23;100554.03;;;12.37
8533;BMP280;4304;53.876;10.662;2023-08-08T01:18:49;100557.94;;;12.43
8533;BMP280;4304;53.876;10.662;2023-08-08T01:21:15;100548.94;;;12.47
8533;BMP280;4304;53.876;10.662;2023-08-08T01:24:31;100553.81;;;12.51
8533;BMP280;4304;53.876;10.662;2023-08-08T01:26:32;100557.56;;;12.47
8533;BMP280;4304;53.876;10.662;2023-08-08T01:28:58;100550.97;;;12.43
8533;BMP280;4304;53.876;10.662;2023-08-08T01:31:23;100551.66;;;12.45
8533;BMP280;4304;53.876;10.662;2023-08-08T01:33:48;100549.66;;;12.49
8533;BMP280;4304;53.876;10.662;2023-08-08T01:36:20;100527.97;;;12.48
8533;BMP280;4304;53.876;10.662;2023-08-08T01:38:48;100537.69;;;12.46
8533;BMP280;4304;53.876;10.662;2023-08-08T01:41:15;100534.81;;;12.49
8533;BMP280;4304;53.876;10.662;2023-08-08T01:43:41;100540.41;;;12.34
8533;BMP280;4304;53.876;10.662;2023-08-08T01:46:07;100541.47;;;12.32
8533;BMP280;4304;53.876;10.662;2023-08-08T01:48:33;100539.94;;;12.29
8533;BMP280;4304;53.876;10.662;2023-08-08T01:50:59;100546.91;;;12.18
8533;BMP280;4304;53.876;10.662;2023-08-08T01:53:24;100545.88;;;12.20
8533;BMP280;4304;53.876;10.662;2023-08-08T01:55:50;100547.75;;;12.18
8533;BMP280;4304;53.876;10.662;2023-08-08T01:58:17;100541.72;;;12.18
8533;BMP280;4304;53.876;10.662;2023-08-08T02:00:42;100529.28;;;12.21
8533;BMP280;4304;53.876;10.662;2023-08-08T02:03:10;100545.13;;;12.18
8533;BMP280;4304;53.876;10.662;2023-08-08T02:05:35;100534.25;;;12.13
8533;BMP280;4304;53.876;10.662;2023-08-08T02:08:00;100526.78;;;12.20
8533;BMP280;4304;53.876;10.662;2023-08-08T02:10:26;100529.28;;;12.21
8533;BMP280;4304;53.876;10.662;2023-08-08T02:12:51;100521.69;;;12.18
8533;BMP280;4304;53.876;10.662;2023-08-08T02:15:16;100524.06;;;12.21
8533;BMP280;4304;53.876;10.662;2023-08-08T02:17:42;100516.25;;;12.21
8533;BMP280;4304;53.876;10.662;2023-08-08T02:20:07;100520.06;;;12.17
8533;BMP280;4304;53.876;10.662;2023-08-08T02:22:34;100514.97;;;12.16
8533;BMP280;4304;53.876;10.662;2023-08-08T02:24:59;100515.06;;;12.14
8533;BMP280;4304;53.876;10.662;2023-08-08T02:27:27;100514.00;;;12.17
8533;BMP280;4304;53.876;10.662;2023-08-08T02:29:53;100514.72;;;12.19
8533;BMP280;4304;53.876;10.662;2023-08-08T02:32:18;100519.81;;;12.20
8533;BMP280;4304;53.876;10.662;2023-08-08T02:34:43;100521.13;;;12.26
8533;BMP280;4304;53.876;10.662;2023-08-08T02:37:09;100518.41;;;12.27
8533;BMP280;4304;53.876;10.662;2023-08-08T02:39:34;100525.25;;;12.28
8533;BMP280;4304;53.876;10.662;2023-08-08T02:42:00;100522.53;;;12.30
8533;BMP280;4304;53.876;10.662;2023-08-08T02:44:25;100517.44;;;12.28
8533;BMP280;4304;53.876;10.662;2023-08-08T02:46:50;100523.84;;;12.35
8533;BMP280;4304;53.876;10.662;2023-08-08T02:49:16;100520.03;;;12.39
8533;BMP280;4304;53.876;10.662;2023-08-08T02:51:41;100515.75;;;12.38
8533;BMP280;4304;53.876;10.662;2023-08-08T02:54:06;100517.66;;;12.36
8533;BMP280;4304;53.876;10.662;2023-08-08T02:56:32;100521.59;;;12.41
8533;BMP280;4304;53.876;10.662;2023-08-08T02:58:57;100513.44;;;12.35
8533;BMP280;4304;53.876;10.662;2023-08-08T03:01:23;100514.13;;;12.37
8533;BMP280;4304;53.876;10.662;2023-08-08T03:03:49;100511.75;;;12.34
8533;BMP280;4304;53.876;10.662;2023-08-08T03:06:14;100512.81;;;12.32
8533;BMP280;4304;53.876;10.662;2023-08-08T03:08:40;100500.03;;;12.29
8533;BMP280;4304;53.876;10.662;2023-08-08T03:11:05;100502.06;;;12.25
8533;BMP280;4304;53.876;10.662;2023-08-08T03:13:30;100490.19;;;12.21
8533;BMP280;4304;53.876;10.662;2023-08-08T03:15:56;100492.47;;;12.26
8533;BMP280;4304;53.876;10.662;2023-08-08T03:18:22;100499.56;;;12.24
8533;BMP280;4304;53.876;10.662;2023-08-08T03:20:48;100498.00;;;12.21
8533;BMP280;4304;53.876;10.662;2023-08-08T03:23:13;100493.28;;;12.26
8533;BMP280;4304;53.876;10.662;2023-08-08T03:25:39;100502.53;;;12.19
8533;BMP280;4304;53.876;10.662;2023-08-08T03:28:04;100499.47;;;12.25
8533;BMP280;4304;53.876;10.662;2023-08-08T03:30:30;100510.34;;;12.30
8533;BMP280;4304;53.876;10.662;2023-08-08T03:32:55;100489.38;;;12.21
8533;BMP280;4304;53.876;10.662;2023-08-08T03:35:20;100498.50;;;12.26
8533;BMP280;4304;53.876;10.662;2023-08-08T03:37:46;100495.41;;;12.21
8533;BMP280;4304;53.876;10.662;2023-08-08T03:40:11;100494.72;;;12.19
8533;BMP280;4304;53.876;10.662;2023-08-08T03:42:39;100490.44;;;12.18
8533;BMP280;4304;53.876;10.662;2023-08-08T03:45:04;100492.81;;;12.21
8533;BMP280;4304;53.876;10.662;2023-08-08T03:47:30;100486.28;;;12.27
8533;BMP280;4304;53.876;10.662;2023-08-08T03:49:55;100487.47;;;12.23
8533;BMP280;4304;53.876;10.662;2023-08-08T03:52:23;100491.28;;;12.19
8533;BMP280;4304;53.876;10.662;2023-08-08T03:54:48;100495.66;;;12.29
8533;BMP280;4304;53.876;10.662;2023-08-08T03:57:14;100493.75;;;12.31
8533;BMP280;4304;53.876;10.662;2023-08-08T03:59:39;100497.91;;;12.34
8533;BMP280;4304;53.876;10.662;2023-08-08T04:02:04;100497.19;;;12.42
8533;BMP280;4304;53.876;10.662;2023-08-08T04:04:30;100491.84;;;12.44
8533;BMP280;4304;53.876;10.662;2023-08-08T04:06:55;100493.13;;;12.49
8533;BMP280;4304;53.876;10.662;2023-08-08T04:09:24;100493.72;;;12.53
8533;BMP280;4304;53.876;10.662;2023-08-08T04:11:51;100499.91;;;12.52
8533;BMP280;4304;53.876;10.662;2023-08-08T04:14:16;100499.91;;;12.52
8533;BMP280;4304;53.876;10.662;2023-08-08T04:16:42;100495.63;;;12.51
8533;BMP280;4304;53.876;10.662;2023-08-08T04:19:07;100494.44;;;12.55
8533;BMP280;4304;53.876;10.662;2023-08-08T04:21:33;100503.78;;;12.57
8533;BMP280;4304;53.876;10.662;2023-08-08T04:23:59;100500.34;;;12.57
8533;BMP280;4304;53.876;10.662;2023-08-08T04:26:25;100506.28;;;12.59
8533;BMP280;4304;53.876;10.662;2023-08-08T04:28:50;100509.59;;;12.61
8533;BMP280;4304;53.876;10.662;2023-08-08T04:31:16;100508.28;;;12.66
8533;BMP280;4304;53.876;10.662;2023-08-08T04:33:41;100512.31;;;12.70
8533;BMP280;4304;53.876;10.662;2023-08-08T04:36:07;100508.88;;;12.70
8533;BMP280;4304;53.876;10.662;2023-08-08T04:38:32;100503.66;;;12.70
8533;BMP280;4304;53.876;10.662;2023-08-08T04:40:57;100503.91;;;12.67
8533;BMP280;4304;53.876;10.662;2023-08-08T04:43:23;100496.31;;;12.75
8533;BMP280;4304;53.876;10.662;2023-08-08T04:45:50;100494.06;;;12.70
8533;BMP280;4304;53.876;10.662;2023-08-08T04:48:16;100486.81;;;12.74
8533;BMP280;4304;53.876;10.662;2023-08-08T04:50:41;100498.78;;;12.76
8533;BMP280;4304;53.876;10.662;2023-08-08T04:53:07;100510.97;;;12.76
8533;BMP280;4304;53.876;10.662;2023-08-08T04:55:32;100506.97;;;12.72
8533;BMP280;4304;53.876;10.662;2023-08-08T04:57:58;100495.44;;;12.74
8533;BMP280;4304;53.876;10.662;2023-08-08T05:00:26;100494.63;;;12.74
8533;BMP280;4304;53.876;10.662;2023-08-08T05:02:51;100499.84;;;12.74
8533;BMP280;4304;53.876;10.662;2023-08-08T05:05:17;100482.28;;;12.76
8533;BMP280;4304;53.876;10.662;2023-08-08T05:07:42;100495.69;;;12.93
8533;BMP280;4304;53.876;10.662;2023-08-08T05:10:07;100481.06;;;13.01
8533;BMP280;4304;53.876;10.662;2023-08-08T05:12:33;100502.03;;;13.31
8533;BMP280;4304;53.876;10.662;2023-08-08T05:14:58;100491.94;;;13.37
8533;BMP280;4304;53.876;10.662;2023-08-08T05:17:24;100503.97;;;13.29
8533;BMP280;4304;53.876;10.662;2023-08-08T05:19:49;100500.13;;;13.33
8533;BMP280;4304;53.876;10.662;2023-08-08T05:22:14;100501.91;;;13.32
8533;BMP280;4304;53.876;10.662;2023-08-08T05:24:40;100508.16;;;13.41
8533;BMP280;4304;53.876;10.662;2023-08-08T05:27:05;100508.25;;;13.30
8533;BMP280;4304;53.876;10.662;2023-08-08T05:29:30;100509.19;;;13.29
8533;BMP280;4304;53.876;10.662;2023-08-08T05:31:56;100521.19;;;13.21
8533;BMP280;4304;53.876;10.662;2023-08-08T05:34:23;100506.72;;;13.17
8533;BMP280;4304;53.876;10.662;2023-08-08T05:36:49;100512.34;;;13.12
8533;BMP280;4304;53.876;10.662;2023-08-08T05:39:14;100505.13;;;13.05
8533;BMP280;4304;53.876;10.662;2023-08-08T05:41:40;100505.94;;;13.05
8533;BMP280;4304;53.876;10.662;2023-08-08T05:44:05;100499.91;;;13.05
8533;BMP280;4304;53.876;10.662;2023-08-08T05:46:31;100502.28;;;13.08
8533;BMP280;4304;53.876;10.662;2023-08-08T05:48:56;100506.03;;;13.15
8533;BMP280;4304;53.876;10.662;2023-08-08T05:51:22;100506.03;;;13.15
8533;BMP280;4304;53.876;10.662;2023-08-08T05:53:47;100513.25;;;13.22
8533;BMP280;4304;53.876;10.662;2023-08-08T05:56:13;100516.06;;;13.30
8533;BMP280;4304;53.876;10.662;2023-08-08T05:58:38;100510.19;;;13.37
8533;BMP280;4304;53.876;10.662;2023-08-08T06:01:04;100494.09;;;13.32
8533;BMP280;4304;53.876;10.662;2023-08-08T06:03:34;100508.81;;;13.33
8533;BMP280;4304;53.876;10.662;2023-08-08T06:06:00;100497.81;;;13.30
8533;BMP280;4304;53.876;10.662;2023-08-08T06:08:26;100496.38;;;13.26
8533;BMP280;4304;53.876;10.662;2023-08-08T06:10:52;100487.50;;;13.28
8533;BMP280;4304;53.876;10.662;2023-08-08T06:13:17;100495.44;;;13.27
8533;BMP280;4304;53.876;10.662;2023-08-08T06:15:42;100498.50;;;13.32
8533;BMP280;4304;53.876;10.662;2023-08-08T06:18:08;100483.41;;;13.35
8533;BMP280;4304;53.876;10.662;2023-08-08T06:20:33;100489.19;;;13.39
8533;BMP280;4304;53.876;10.662;2023-08-08T06:22:58;100484.06;;;13.48
8533;BMP280;4304;53.876;10.662;2023-08-08T06:25:25;100488.94;;;13.42
8533;BMP280;4304;53.876;10.662;2023-08-08T06:27:50;100489.03;;;13.51
8533;BMP280;4304;53.876;10.662;2023-08-08T06:30:16;100485.13;;;13.66
8533;BMP280;4304;53.876;10.662;2023-08-08T06:32:41;100478.56;;;13.71
8533;BMP280;4304;53.876;10.662;2023-08-08T06:35:07;100477.19;;;13.97
8533;BMP280;4304;53.876;10.662;2023-08-08T06:37:33;100475.84;;;14.03
8533;BMP280;4304;53.876;10.662;2023-08-08T06:39:58;100479.28;;;14.23
8533;BMP280;4304;53.876;10.662;2023-08-08T06:42:23;100486.72;;;14.76
8533;BMP280;4304;53.876;10.662;2023-08-08T06:44:49;100461.69;;;15.30
8533;BMP280;4304;53.876;10.662;2023-08-08T06:47:14;100469.81;;;15.18
8533;BMP280;4304;53.876;10.662;2023-08-08T06:49:40;100471.88;;;14.95
8533;BMP280;4304;53.876;10.662;2023-08-08T06:52:05;100473.63;;;14.76
8533;BMP280;4304;53.876;10.662;2023-08-08T06:54:31;100482.97;;;14.69
8533;BMP280;4304;53.876;10.662;2023-08-08T06:56:57;100460.09;;;14.62
8533;BMP280;4304;53.876;10.662;2023-08-08T06:59:23;100469.31;;;14.56
8533;BMP280;4304;53.876;10.662;2023-08-08T07:01:49;100484.97;;;14.47
8533;BMP280;4304;53.876;10.662;2023-08-08T07:04:15;100496.56;;;14.45
8533;BMP280;4304;53.876;10.662;2023-08-08T07:06:43;100493.06;;;14.35
8533;BMP280;4304;53.876;10.662;2023-08-08T07:09:08;100484.22;;;14.26
8533;BMP280;4304;53.876;10.662;2023-08-08T07:11:36;100469.69;;;14.33
8533;BMP280;4304;53.876;10.662;2023-08-08T07:14:01;100473.84;;;14.45
8533;BMP280;4304;53.876;10.662;2023-08-08T07:16:27;100474.41;;;14.67
8533;BMP280;4304;53.876;10.662;2023-08-08T07:18:52;100470.75;;;14.79
8533;BMP280;4304;53.876;10.662;2023-08-08T07:21:17;100463.06;;;15.43
8533;BMP280;4304;53.876;10.662;2023-08-08T07:23:43;100458.78;;;15.52
8533;BMP280;4304;53.876;10.662;2023-08-08T07:26:08;100465.28;;;15.38
8533;BMP280;4304;53.876;10.662;2023-08-08T07:28:33;100456.59;;;15.38
8533;BMP280;4304;53.876;10.662;2023-08-08T07:30:59;100465.41;;;15.46
8533;BMP280;4304;53.876;10.662;2023-08-08T07:33:24;100458.22;;;15.58
8533;BMP280;4304;53.876;10.662;2023-08-08T07:35:49;100457.00;;;15.43
8533;BMP280;4304;53.876;10.662;2023-08-08T07:38:15;100441.56;;;15.31
8533;BMP280;4304;53.876;10.662;2023-08-08T07:40:41;100448.47;;;15.32
8533;BMP280;4304;53.876;10.662;2023-08-08T07:43:06;100443.31;;;15.58
8533;BMP280;4304;53.876;10.662;2023-08-08T07:45:32;100441.53;;;15.95
8533;BMP280;4304;53.876;10.662;2023-08-08T07:47:57;100437.34;;;16.11
8533;BMP280;4304;53.876;10.662;2023-08-08T07:50:22;100438.94;;;16.58
8533;BMP280;4304;53.876;10.662;2023-08-08T07:52:48;100453.88;;;17.09
8533;BMP280;4304;53.876;10.662;2023-08-08T07:55:13;100439.97;;;17.76
8533;BMP280;4304;53.876;10.662;2023-08-08T07:57:39;100442.09;;;18.06
8533;BMP280;4304;53.876;10.662;2023-08-08T08:00:06;100444.03;;;18.29
8533;BMP280;4304;53.876;10.662;2023-08-08T08:02:36;100425.88;;;18.51
8533;BMP280;4304;53.876;10.662;2023-08-08T08:05:02;100434.75;;;18.50
8533;BMP280;4304;53.876;10.662;2023-08-08T08:07:31;100416.88;;;18.21
8533;BMP280;4304;53.876;10.662;2023-08-08T08:09:57;100432.47;;;17.64
8533;BMP280;4304;53.876;10.662;2023-08-08T08:12:22;100428.69;;;17.84
8533;BMP280;4304;53.876;10.662;2023-08-08T08:14:48;100428.41;;;18.28
8533;BMP280;4304;53.876;10.662;2023-08-08T08:17:13;100424.88;;;18.11
8533;BMP280;4304;53.876;10.662;2023-08-08T08:19:38;100418.53;;;17.63
8533;BMP280;4304;53.876;10.662;2023-08-08T08:22:04;100425.84;;;17.52
8533;BMP280;4304;53.876;10.662;2023-08-08T08:24:29;100426.28;;;17.22
8533;BMP280;4304;53.876;10.662;2023-08-08T08:26:55;100435.47;;;16.92
8533;BMP280;4304;53.876;10.662;2023-08-08T08:29:20;100421.09;;;16.96
8533;BMP280;4304;53.876;10.662;2023-08-08T08:31:45;100424.69;;;16.77
8533;BMP280;4304;53.876;10.662;2023-08-08T08:34:11;100430.69;;;16.70
8533;BMP280;4304;53.876;10.662;2023-08-08T08:36:36;100416.88;;;16.51
8533;BMP280;4304;53.876;10.662;2023-08-08T08:39:02;100418.09;;;16.56
8533;BMP280;4304;53.876;10.662;2023-08-08T08:41:28;100431.50;;;16.53
8533;BMP280;4304;53.876;10.662;2023-08-08T08:43:56;100429.63;;;16.10
8533;BMP280;4304;53.876;10.662;2023-08-08T08:46:24;100460.25;;;15.64
8533;BMP280;4304;53.876;10.662;2023-08-08T08:48:51;100457.97;;;15.33
8533;BMP280;4304;53.876;10.662;2023-08-08T08:51:18;100459.19;;;14.91
8533;BMP280;4304;53.876;10.662;2023-08-08T08:53:43;100462.06;;;14.69
8533;BMP280;4304;53.876;10.662;2023-08-08T08:56:11;100443.06;;;14.86
8533;BMP280;4304;53.876;10.662;2023-08-08T08:58:37;100451.72;;;15.52
8533;BMP280;4304;53.876;10.662;2023-08-08T09:01:03;100455.22;;;15.34
8533;BMP280;4304;53.876;10.662;2023-08-08T09:03:29;100445.00;;;15.31
8533;BMP280;4304;53.876;10.662;2023-08-08T09:05:54;100440.59;;;15.13
8533;BMP280;4304;53.876;10.662;2023-08-08T09:08:22;100450.50;;;15.00
8533;BMP280;4304;53.876;10.662;2023-08-08T09:10:47;100454.09;;;14.99
8533;BMP280;4304;53.876;10.662;2023-08-08T09:13:12;100455.06;;;15.07
8533;BMP280;4304;53.876;10.662;2023-08-08T09:15:38;100463.06;;;15.06
8533;BMP280;4304;53.876;10.662;2023-08-08T09:18:03;100460.03;;;15.10
8533;BMP280;4304;53.876;10.662;2023-08-08T09:20:30;100451.31;;;15.57
8533;BMP280;4304;53.876;10.662;2023-08-08T09:22:56;100446.25;;;16.27
8533;BMP280;4304;53.876;10.662;2023-08-08T09:25:22;100445.13;;;16.57
8533;BMP280;4304;53.876;10.662;2023-08-08T09:27:52;100455.28;;;16.42
8533;BMP280;4304;53.876;10.662;2023-08-08T09:30:20;100455.97;;;16.08
8533;BMP280;4304;53.876;10.662;2023-08-08T09:32:46;100460.00;;;16.03
8533;BMP280;4304;53.876;10.662;2023-08-08T09:35:12;100458.56;;;16.18
8533;BMP280;4304;53.876;10.662;2023-08-08T09:37:38;100452.78;;;16.24
8533;BMP280;4304;53.876;10.662;2023-08-08T09:40:05;100448.06;;;16.27
8533;BMP280;4304;53.876;10.662;2023-08-08T09:42:33;100445.50;;;16.62
8533;BMP280;4304;53.876;10.662;2023-08-08T09:45:00;100431.59;;;17.48
8533;BMP280;4304;53.876;10.662;2023-08-08T09:47:26;100435.56;;;17.17
8533;BMP280;4304;53.876;10.662;2023-08-08T09:50:00;100424.09;;;17.60
8533;BMP280;4304;53.876;10.662;2023-08-08T09:52:29;100429.59;;;17.75
8533;BMP280;4304;53.876;10.662;2023-08-08T09:54:55;100431.56;;;17.73
8533;BMP280;4304;53.876;10.662;2023-08-08T09:57:22;100432.53;;;17.47
8533;BMP280;4304;53.876;10.662;2023-08-08T09:59:48;100441.53;;;17.44
8533;BMP280;4304;53.876;10.662;2023-08-08T10:02:15;100445.06;;;17.18
8533;BMP280;4304;53.876;10.662;2023-08-08T10:04:45;100437.53;;;17.15
8533;BMP280;4304;53.876;10.662;2023-08-08T10:07:10;100428.91;;;17.22
8533;BMP280;4304;53.876;10.662;2023-08-08T10:09:36;100415.53;;;17.58
8533;BMP280;4304;53.876;10.662;2023-08-08T10:12:04;100431.72;;;17.46
8533;BMP280;4304;53.876;10.662;2023-08-08T10:14:35;100428.31;;;17.53
8533;BMP280;4304;53.876;10.662;2023-08-08T10:17:06;100439.31;;;17.32
8533;BMP280;4304;53.876;10.662;2023-08-08T10:19:31;100421.97;;;17.39
8533;BMP280;4304;53.876;10.662;2023-08-08T10:22:00;100429.69;;;17.57
8533;BMP280;4304;53.876;10.662;2023-08-08T10:24:33;100422.13;;;17.88
8533;BMP280;4304;53.876;10.662;2023-08-08T10:27:00;100427.59;;;17.69
8533;BMP280;4304;53.876;10.662;2023-08-08T10:29:29;100426.16;;;18.07
8533;BMP280;4304;53.876;10.662;2023-08-08T10:32:05;100427.94;;;18.32
8533;BMP280;4304;53.876;10.662;2023-08-08T10:37:09;100438.91;;;18.69
8533;BMP280;4304;53.876;10.662;2023-08-08T10:39:36;100435.00;;;18.88
8533;BMP280;4304;53.876;10.662;2023-08-08T10:42:05;100431.88;;;18.77
8533;BMP280;4304;53.876;10.662;2023-08-08T10:44:30;100444.06;;;18.94
8533;BMP280;4304;53.876;10.662;2023-08-08T10:46:56;100429.22;;;18.69
8533;BMP280;4304;53.876;10.662;2023-08-08T10:49:22;100415.22;;;18.77
8533;BMP280;4304;53.876;10.662;2023-08-08T10:51:48;100477.88;;;19.22
8533;BMP280;4304;53.876;10.662;2023-08-08T10:54:16;100461.69;;;19.01
8533;BMP280;4304;53.876;10.662;2023-08-08T10:56:53;100453.16;;;19.15
8533;BMP280;4304;53.876;10.662;2023-08-08T10:59:23;100440.91;;;18.83
8533;BMP280;4304;53.876;10.662;2023-08-08T11:01:50;100453.31;;;19.06
8533;BMP280;4304;53.876;10.662;2023-08-08T11:04:21;100428.72;;;18.74
8533;BMP280;4304;53.876;10.662;2023-08-08T11:06:48;100443.25;;;18.93
8533;BMP280;4304;53.876;10.662;2023-08-08T11:09:15;100433.38;;;18.95
8533;BMP280;4304;53.876;10.662;2023-08-08T11:11:42;100454.44;;;18.95
8533;BMP280;4304;53.876;10.662;2023-08-08T11:14:11;100444.00;;;18.62
8533;BMP280;4304;53.876;10.662;2023-08-08T11:16:36;100449.75;;;18.74
8533;BMP280;4304;53.876;10.662;2023-08-08T11:19:02;100456.78;;;19.06
8533;BMP280;4304;53.876;10.662;2023-08-08T11:21:28;100436.00;;;18.87
8533;BMP280;4304;53.876;10.662;2023-08-08T11:23:53;100436.47;;;18.83
8533;BMP280;4304;53.876;10.662;2023-08-08T11:26:18;100437.97;;;18.85
8533;BMP280;4304;53.876;10.662;2023-08-08T11:28:51;100437.03;;;19.02
8533;BMP280;4304;53.876;10.662;2023-08-08T11:31:18;100427.09;;;18.81
8533;BMP280;4304;53.876;10.662;2023-08-08T11:33:47;100426.38;;;18.55
8533;BMP280;4304;53.876;10.662;2023-08-08T11:36:14;100425.72;;;18.69
8533;BMP280;4304;53.876;10.662;2023-08-08T11:38:39;100419.97;;;18.65
8533;BMP280;4304;53.876;10.662;2023-08-08T11:41:06;100421.72;;;18.33
8533;BMP280;4304;53.876;10.662;2023-08-08T11:43:31;100420.31;;;18.13
8533;BMP280;4304;53.876;10.662;2023-08-08T11:46:00;100437.41;;;18.17
8533;BMP280;4304;53.876;10.662;2023-08-08T11:48:26;100444.25;;;18.10
8533;BMP280;4304;53.876;10.662;2023-08-08T11:50:52;100441.78;;;18.42
8533;BMP280;4304;53.876;10.662;2023-08-08T11:53:19;100441.06;;;18.73
8533;BMP280;4304;53.876;10.662;2023-08-08T11:55:45;100435.25;;;18.46
8533;BMP280;4304;53.876;10.662;2023-08-08T11:58:14;100435.94;;;18.15
8533;BMP280;4304;53.876;10.662;2023-08-08T12:00:42;100426.81;;;18.42
8533;BMP280;4304;53.876;10.662;2023-08-08T12:03:08;100423.69;;;18.39
8533;BMP280;4304;53.876;10.662;2023-08-08T12:05:37;100427.94;;;18.32
8533;BMP280;4304;53.876;10.662;2023-08-08T12:08:05;100430.31;;;18.59
8533;BMP280;4304;53.876;10.662;2023-08-08T12:10:30;100427.44;;;18.93
8533;BMP280;4304;53.876;10.662;2023-08-08T12:12:57;100432.88;;;19.00
8533;BMP280;4304;53.876;10.662;2023-08-08T12:15:34;100425.28;;;18.89
8533;BMP280;4304;53.876;10.662;2023-08-08T12:18:02;100428.72;;;18.82
8533;BMP280;4304;53.876;10.662;2023-08-08T12:20:28;100419.22;;;18.88
8533;BMP280;4304;53.876;10.662;2023-08-08T12:22:57;100414.50;;;18.43
8533;BMP280;4304;53.876;10.662;2023-08-08T12:25:23;100404.81;;;18.51
8533;BMP280;4304;53.876;10.662;2023-08-08T12:27:48;100423.13;;;18.77
8533;BMP280;4304;53.876;10.662;2023-08-08T12:30:14;100423.16;;;18.92
8533;BMP280;4304;53.876;10.662;2023-08-08T12:32:40;100434.56;;;19.32
8533;BMP280;4304;53.876;10.662;2023-08-08T12:35:05;100417.75;;;19.33
8533;BMP280;4304;53.876;10.662;2023-08-08T12:37:31;100431.56;;;18.96
8533;BMP280;4304;53.876;10.662;2023-08-08T12:39:57;100424.28;;;18.66
8533;BMP280;4304;53.876;10.662;2023-08-08T12:42:22;100418.78;;;18.44
8533;BMP280;4304;53.876;10.662;2023-08-08T12:44:48;100435.00;;;17.98
8533;BMP280;4304;53.876;10.662;2023-08-08T12:47:16;100445.09;;;17.60
8533;BMP280;4304;53.876;10.662;2023-08-08T12:49:41;100467.00;;;17.09
8533;BMP280;4304;53.876;10.662;2023-08-08T12:52:07;100447.13;;;17.41
8533;BMP280;4304;53.876;10.662;2023-08-08T12:54:32;100439.03;;;17.60
8533;BMP280;4304;53.876;10.662;2023-08-08T12:56:57;100423.44;;;17.92
8533;BMP280;4304;53.876;10.662;2023-08-08T12:59:23;100435.78;;;17.91
8533;BMP280;4304;53.876;10.662;2023-08-08T13:01:48;100432.69;;;17.96
8533;BMP280;4304;53.876;10.662;2023-08-08T13:04:13;100426.13;;;17.99
8533;BMP280;4304;53.876;10.662;2023-08-08T13:06:39;100418.94;;;18.09
8533;BMP280;4304;53.876;10.662;2023-08-08T13:09:04;100412.72;;;18.51
8533;BMP280;4304;53.876;10.662;2023-08-08T13:11:30;100417.13;;;18.43
8533;BMP280;4304;53.876;10.662;2023-08-08T13:13:55;100419.81;;;18.67
8533;BMP280;4304;53.876;10.662;2023-08-08T13:16:20;100422.63;;;18.73
8533;BMP280;4304;53.876;10.662;2023-08-08T13:18:46;100399.94;;;18.88
8533;BMP280;4304;53.876;10.662;2023-08-08T13:21:11;100416.16;;;18.52
8533;BMP280;4304;53.876;10.662;2023-08-08T13:23:37;100422.75;;;18.64
8533;BMP280;4304;53.876;10.662;2023-08-08T13:26:03;100427.22;;;18.63
8533;BMP280;4304;53.876;10.662;2023-08-08T13:28:29;100425.00;;;19.00
8533;BMP280;4304;53.876;10.662;2023-08-08T13:30:54;100438.69;;;19.03
8533;BMP280;4304;53.876;10.662;2023-08-08T13:33:20;100449.09;;;18.72
8533;BMP280;4304;53.876;10.662;2023-08-08T13:35:46;100451.19;;;18.11
8533;BMP280;4304;53.876;10.662;2023-08-08T13:38:11;100469.84;;;17.50
8533;BMP280;4304;53.876;10.662;2023-08-08T13:40:41;100482.75;;;17.09
8533;BMP280;4304;53.876;10.662;2023-08-08T13:43:06;100509.41;;;16.43
8533;BMP280;4304;53.876;10.662;2023-08-08T13:45:31;100515.53;;;15.70
8533;BMP280;4304;53.876;10.662;2023-08-08T13:47:56;100538.97;;;15.25
8533;BMP280;4304;53.876;10.662;2023-08-08T13:50:22;100545.47;;;14.72
8533;BMP280;4304;53.876;10.662;2023-08-08T13:52:47;100555.66;;;14.66
8533;BMP280;4304;53.876;10.662;2023-08-08T13:55:13;100528.28;;;14.89
8533;BMP280;4304;53.876;10.662;2023-08-08T13:57:38;100499.03;;;15.23
8533;BMP280;4304;53.876;10.662;2023-08-08T14:00:04;100503.03;;;15.27
8533;BMP280;4304;53.876;10.662;2023-08-08T14:02:32;100508.66;;;15.50
8533;BMP280;4304;53.876;10.662;2023-08-08T14:04:57;100507.81;;;15.69